createdAt,value
2023-11-18T00:00:12.959Z,94202.33
2023-11-18T00:01:34.122Z,94197.93
2023-11-18T00:02:37.648Z,94196.40
2023-11-18T00:03:41.610Z,94192.73
2023-11-18T00:04:45.097Z,94193.31
2023-11-18T00:05:48.440Z,94195.70
2023-11-18T00:06:53.254Z,94196.21
2023-11-18T00:07:56.588Z,94193.56
2023-11-18T00:09:00.205Z,94195.34
2023-11-18T00:10:04.951Z,94195.48
2023-11-18T00:11:09.621Z,94193.80
2023-11-18T00:12:13.198Z,94197.70
2023-11-18T00:13:16.654Z,94200.20
2023-11-18T00:14:21.518Z,94203.55
2023-11-18T00:15:25.069Z,94204.02
2023-11-18T00:16:30.362Z,94207.04
2023-11-18T00:17:34.550Z,94198.95
2023-11-18T00:18:38.349Z,94200.14
2023-11-18T00:19:43.124Z,94194.65
2023-11-18T00:20:46.533Z,94193.48
2023-11-18T00:21:50.398Z,94192.92
2023-11-18T00:22:54.206Z,94188.71
2023-11-18T00:23:57.870Z,94188.98
2023-11-18T00:25:01.671Z,94188.54
2023-11-18T00:26:07.553Z,94193.19
2023-11-18T00:27:11.100Z,94199.19
2023-11-18T00:28:14.796Z,94204.13
2023-11-18T00:29:18.210Z,94205.23
2023-11-18T00:30:21.649Z,94208.87
2023-11-18T00:31:25.689Z,94208.35
2023-11-18T00:32:29.866Z,94210.14
2023-11-18T00:33:33.456Z,94207.00
2023-11-18T00:34:37.110Z,94206.70
2023-11-18T00:35:40.490Z,94206.10
2023-11-18T00:36:44.210Z,94201.29
2023-11-18T00:37:48.771Z,94196.25
2023-11-18T00:38:52.232Z,94196.77
2023-11-18T00:39:55.741Z,94193.92
2023-11-18T00:40:59.360Z,94193.52
2023-11-18T00:42:03.536Z,94194.05
2023-11-18T00:43:09.190Z,94193.30
2023-11-18T00:44:13.912Z,94193.27
2023-11-18T00:45:18.602Z,94196.73
2023-11-18T00:46:22.815Z,94196.38
2023-11-18T00:47:26.468Z,94200.23
2023-11-18T00:48:30.881Z,94202.52
2023-11-18T00:49:35.463Z,94203.20
2023-11-18T00:50:38.978Z,94199.55
2023-11-18T00:51:42.738Z,94196.20
2023-11-18T00:52:50.385Z,94195.27
2023-11-18T00:53:55.089Z,94195.42
2023-11-18T00:54:58.852Z,94193.60
2023-11-18T00:56:02.998Z,94193.59
2023-11-18T00:57:07.965Z,94192.52
2023-11-18T00:58:11.758Z,94191.28
2023-11-18T00:59:16.448Z,94192.30
2023-11-18T01:00:23.900Z,94187.62
2023-11-18T01:01:27.311Z,94184.77
2023-11-18T01:02:31.760Z,94182.16
2023-11-18T01:03:35.098Z,94177.41
2023-11-18T01:04:39.403Z,94171.64
2023-11-18T01:05:43.105Z,94171.49
2023-11-18T01:06:47.960Z,94166.08
2023-11-18T01:07:51.474Z,94171.14
2023-11-18T01:08:54.605Z,94172.90
2023-11-18T01:09:58.337Z,94174.23
2023-11-18T01:11:02.253Z,94180.80
2023-11-18T01:12:10.139Z,94178.11
2023-11-18T01:13:14.122Z,94175.15
2023-11-18T01:14:18.059Z,94171.79
2023-11-18T01:15:21.456Z,94165.84
2023-11-18T01:16:25.656Z,94166.43
2023-11-18T01:17:30.104Z,94163.94
2023-11-18T01:18:33.478Z,94166.54
2023-11-18T01:19:37.052Z,94166.20
2023-11-18T01:20:41.367Z,94164.23
2023-11-18T01:21:44.739Z,94166.88
2023-11-18T01:22:49.647Z,94164.45
2023-11-18T01:23:52.803Z,94160.18
2023-11-18T01:24:58.624Z,94159.83
2023-11-18T01:26:02.344Z,94156.48
2023-11-18T01:27:10.232Z,94162.66
2023-11-18T01:28:15.976Z,94159.74
2023-11-18T01:29:19.393Z,94163.91
2023-11-18T01:30:24.514Z,94166.60
2023-11-18T01:31:32.194Z,94169.52
2023-11-18T01:32:40.398Z,94164.57
2023-11-18T01:33:45.650Z,94169.91
2023-11-18T01:34:50.858Z,94173.02
2023-11-18T01:35:55.841Z,94175.82
2023-11-18T01:36:59.138Z,94176.30
2023-11-18T01:38:03.418Z,94180.89
2023-11-18T01:39:07.984Z,94180.25
2023-11-18T01:40:13.709Z,94181.77
2023-11-18T01:41:17.460Z,94176.84
2023-11-18T01:42:21.497Z,94176.24
2023-11-18T01:43:24.586Z,94172.75
2023-11-18T01:44:31.405Z,94170.38
2023-11-18T01:45:35.356Z,94168.15
2023-11-18T01:46:39.027Z,94168.98
2023-11-18T01:47:43.735Z,94169.42
2023-11-18T01:48:46.981Z,94169.96
2023-11-18T01:49:50.272Z,94169.65
2023-11-18T01:50:56.438Z,94173.55
2023-11-18T01:52:02.314Z,94173.98
2023-11-18T01:53:06.338Z,94175.85
2023-11-18T01:54:15.586Z,94172.90
2023-11-18T01:55:18.858Z,94172.23
2023-11-18T01:56:26.036Z,94171.67
2023-11-18T01:57:31.106Z,94169.90
2023-11-18T01:58:36.773Z,94167.95
2023-11-18T01:59:40.869Z,94168.39
2023-11-18T02:00:46.906Z,94165.46
2023-11-18T02:01:53.634Z,94165.44
2023-11-18T02:02:57.698Z,94163.56
2023-11-18T02:04:01.768Z,94165.70
2023-11-18T02:05:06.677Z,94169.92
2023-11-18T02:06:11.639Z,94169.25
2023-11-18T02:07:15.797Z,94166.98
2023-11-18T02:08:19.616Z,94171.29
2023-11-18T02:09:33.046Z,94175.23
2023-11-18T02:10:43.857Z,94179.59
2023-11-18T02:11:53.843Z,94181.63
2023-11-18T02:13:07.477Z,94182.35
2023-11-18T02:14:14.296Z,94186.87
2023-11-18T02:15:20.025Z,94181.45
2023-11-18T02:16:24.682Z,94177.13
2023-11-18T02:17:30.159Z,94173.65
2023-11-18T02:18:34.554Z,94176.59
2023-11-18T02:19:41.143Z,94176.42
2023-11-18T02:20:46.398Z,94181.80
2023-11-18T02:21:51.323Z,94178.48
2023-11-18T02:22:55.524Z,94178.26
2023-11-18T02:23:59.068Z,94177.77
2023-11-18T02:25:07.848Z,94186.24
2023-11-18T02:26:11.464Z,94180.96
2023-11-18T02:27:15.166Z,94182.65
2023-11-18T02:28:18.956Z,94183.43
2023-11-18T02:29:22.970Z,94188.21
2023-11-18T02:30:28.264Z,94185.19
2023-11-18T02:31:37.929Z,94184.64
2023-11-18T02:32:48.493Z,94186.46
2023-11-18T02:34:00.496Z,94183.01
2023-11-18T02:35:10.715Z,94184.42
2023-11-18T02:36:21.035Z,94183.27
2023-11-18T02:37:28.341Z,94182.63
2023-11-18T02:38:38.976Z,94185.60
2023-11-18T02:39:49.905Z,94183.53
2023-11-18T02:40:57.670Z,94180.82
2023-11-18T02:42:04.208Z,94180.72
2023-11-18T02:43:09.907Z,94179.52
2023-11-18T02:44:18.914Z,94182.06
2023-11-18T02:45:21.490Z,94181.23
2023-11-18T02:46:28.201Z,94181.23
2023-11-18T02:47:32.118Z,94180.45
2023-11-18T02:48:38.360Z,94178.20
2023-11-18T02:49:41.705Z,94179.25
2023-11-18T02:50:45.334Z,94182.57
2023-11-18T02:51:48.936Z,94182.08
2023-11-18T02:52:52.804Z,94180.23
2023-11-18T02:53:56.625Z,94178.77
2023-11-18T02:55:00.465Z,94179.04
2023-11-18T02:56:05.472Z,94174.64
2023-11-18T02:57:09.250Z,94169.55
2023-11-18T02:58:13.015Z,94168.80
2023-11-18T02:59:16.592Z,94168.20
2023-11-18T03:00:24.556Z,94167.15
2023-11-18T03:01:28.102Z,94164.55
2023-11-18T03:02:32.309Z,94163.25
2023-11-18T03:03:37.125Z,94165.63
2023-11-18T03:04:44.536Z,94164.81
2023-11-18T03:05:50.525Z,94163.13
2023-11-18T03:06:54.490Z,94163.66
2023-11-18T03:07:58.918Z,94168.27
2023-11-18T03:09:03.831Z,94167.28
2023-11-18T03:10:12.753Z,94168.21
2023-11-18T03:11:16.216Z,94168.89
2023-11-18T03:12:19.927Z,94170.52
2023-11-18T03:13:23.709Z,94171.47
2023-11-18T03:14:29.166Z,94173.64
2023-11-18T03:15:32.762Z,94178.86
2023-11-18T03:16:36.931Z,94181.47
2023-11-18T03:17:40.602Z,94185.31
2023-11-18T03:18:44.406Z,94187.71
2023-11-18T03:19:48.542Z,94191.05
2023-11-18T03:20:52.818Z,94195.02
2023-11-18T03:21:56.817Z,94197.22
2023-11-18T03:23:02.179Z,94199.86
2023-11-18T03:24:09.919Z,94199.08
2023-11-18T03:25:14.055Z,94201.50
2023-11-18T03:26:17.546Z,94206.88
2023-11-18T03:27:21.316Z,94202.25
2023-11-18T03:28:24.519Z,94201.75
2023-11-18T03:29:28.402Z,94200.20
2023-11-18T03:30:32.143Z,94203.34
2023-11-18T03:31:36.254Z,94202.02
2023-11-18T03:32:41.140Z,94204.14
2023-11-18T03:33:45.256Z,94204.89
2023-11-18T03:34:48.866Z,94202.34
2023-11-18T03:35:52.868Z,94205.52
2023-11-18T03:36:57.580Z,94203.89
2023-11-18T03:38:01.181Z,94205.73
2023-11-18T03:39:05.024Z,94205.44
2023-11-18T03:40:13.449Z,94205.64
2023-11-18T03:41:17.860Z,94204.81
2023-11-18T03:42:22.273Z,94206.33
2023-11-18T03:43:26.131Z,94204.45
2023-11-18T03:44:30.385Z,94203.52
2023-11-18T03:45:33.862Z,94200.55
2023-11-18T03:46:37.409Z,94198.86
2023-11-18T03:47:41.120Z,94203.31
2023-11-18T03:48:46.073Z,94206.16
2023-11-18T03:49:50.812Z,94205.73
2023-11-18T03:50:54.540Z,94201.52
2023-11-18T03:51:58.284Z,94203.83
2023-11-18T03:53:04.237Z,94201.82
2023-11-18T03:54:09.039Z,94202.20
2023-11-18T03:55:14.200Z,94208.56
2023-11-18T03:56:19.820Z,94208.95
2023-11-18T03:57:22.920Z,94213.36
2023-11-18T03:58:26.643Z,94215.25
2023-11-18T03:59:30.444Z,94219.94
2023-11-18T04:00:33.979Z,94217.71
2023-11-18T04:01:37.912Z,94217.47
2023-11-18T04:02:42.151Z,94221.77
2023-11-18T04:03:45.927Z,94219.33
2023-11-18T04:04:50.573Z,94217.97
2023-11-18T04:05:54.551Z,94221.54
2023-11-18T04:06:58.136Z,94218.59
2023-11-18T04:08:01.596Z,94221.23
2023-11-18T04:09:06.503Z,94220.95
2023-11-18T04:10:11.089Z,94220.65
2023-11-18T04:11:14.796Z,94224.73
2023-11-18T04:12:18.358Z,94224.59
2023-11-18T04:13:22.097Z,94223.77
2023-11-18T04:14:27.005Z,94224.17
2023-11-18T04:15:30.704Z,94226.48
2023-11-18T04:16:35.093Z,94224.08
2023-11-18T04:17:38.994Z,94228.20
2023-11-18T04:18:43.850Z,94224.11
2023-11-18T04:19:47.643Z,94226.45
2023-11-18T04:20:51.873Z,94224.09
2023-11-18T04:21:55.495Z,94224.69
2023-11-18T04:22:59.343Z,94224.45
2023-11-18T04:24:03.983Z,94225.31
2023-11-18T04:25:10.683Z,94221.80
2023-11-18T04:26:14.378Z,94225.23
2023-11-18T04:27:17.943Z,94222.27
2023-11-18T04:28:21.482Z,94225.66
2023-11-18T04:29:24.812Z,94220.73
2023-11-18T04:30:28.214Z,94225.30
2023-11-18T04:31:31.592Z,94225.17
2023-11-18T04:32:34.977Z,94226.18
2023-11-18T04:33:41.611Z,94225.77
2023-11-18T04:34:45.004Z,94228.32
2023-11-18T04:35:48.963Z,94230.77
2023-11-18T04:36:52.420Z,94231.23
2023-11-18T04:37:55.865Z,94227.42
2023-11-18T04:38:59.639Z,94228.56
2023-11-18T04:40:04.350Z,94227.96
2023-11-18T04:41:08.016Z,94227.38
2023-11-18T04:42:12.089Z,94229.80
2023-11-18T04:43:15.929Z,94227.95
2023-11-18T04:44:19.651Z,94231.88
2023-11-18T04:45:23.479Z,94228.56
2023-11-18T04:46:26.703Z,94230.48
2023-11-18T04:47:30.673Z,94230.63
2023-11-18T04:48:37.040Z,94234.31
2023-11-18T04:49:43.223Z,94234.12
2023-11-18T04:50:48.244Z,94236.25
2023-11-18T04:51:51.615Z,94236.05
2023-11-18T04:52:55.383Z,94235.92
2023-11-18T04:53:58.823Z,94235.45
2023-11-18T04:55:03.192Z,94239.41
2023-11-18T04:56:11.990Z,94235.66
2023-11-18T04:57:15.328Z,94238.12
2023-11-18T04:58:19.772Z,94240.04
2023-11-18T04:59:23.387Z,94240.60
2023-11-18T05:00:26.754Z,94238.82
2023-11-18T05:01:30.785Z,94234.52
2023-11-18T05:02:34.533Z,94233.35
2023-11-18T05:03:38.984Z,94232.53
2023-11-18T05:04:43.342Z,94233.29
2023-11-18T05:05:46.731Z,94229.02
2023-11-18T05:06:52.162Z,94232.17
2023-11-18T05:07:55.654Z,94235.51
2023-11-18T05:08:59.282Z,94232.75
2023-11-18T05:10:03.855Z,94239.97
2023-11-18T05:11:08.256Z,94236.65
2023-11-18T05:12:12.020Z,94236.80
2023-11-18T05:13:17.085Z,94239.60
2023-11-18T05:14:20.717Z,94240.27
2023-11-18T05:15:26.897Z,94243.49
2023-11-18T05:16:31.011Z,94244.91
2023-11-18T05:17:36.308Z,94247.23
2023-11-18T05:18:40.342Z,94250.95
2023-11-18T05:19:44.205Z,94248.94
2023-11-18T05:20:48.715Z,94256.61
2023-11-18T05:21:52.350Z,94253.85
2023-11-18T05:22:55.960Z,94256.42
2023-11-18T05:23:59.808Z,94259.67
2023-11-18T05:25:03.385Z,94257.83
2023-11-18T05:26:07.801Z,94258.85
2023-11-18T05:27:11.884Z,94264.31
2023-11-18T05:28:17.530Z,94265.95
2023-11-18T05:29:21.628Z,94264.80
2023-11-18T05:30:24.771Z,94265.16
2023-11-18T05:31:29.844Z,94268.20
2023-11-18T05:32:34.478Z,94268.56
2023-11-18T05:33:38.150Z,94271.13
2023-11-18T05:34:42.995Z,94272.42
2023-11-18T05:35:50.701Z,94276.59
2023-11-18T05:36:55.408Z,94274.36
2023-11-18T05:37:59.627Z,94275.88
2023-11-18T05:39:05.008Z,94276.11
2023-11-18T05:40:11.937Z,94279.67
2023-11-18T05:41:23.995Z,94281.60
2023-11-18T05:42:30.632Z,94281.30
2023-11-18T05:43:41.275Z,94284.19
2023-11-18T05:44:44.557Z,94282.20
2023-11-18T05:46:06.749Z,94285.77
2023-11-18T05:47:12.814Z,94287.43
2023-11-18T05:48:16.283Z,94288.45
2023-11-18T05:49:23.170Z,94292.16
2023-11-18T05:50:26.903Z,94292.63
2023-11-18T05:51:30.468Z,94297.02
2023-11-18T05:52:35.392Z,94296.38
2023-11-18T05:53:45.786Z,94297.38
2023-11-18T05:54:49.330Z,94298.55
2023-11-18T05:55:52.681Z,94302.20
2023-11-18T05:56:59.387Z,94300.79
2023-11-18T05:58:03.721Z,94304.77
2023-11-18T05:59:08.574Z,94305.85
2023-11-18T06:00:16.968Z,94304.23
2023-11-18T06:01:23.535Z,94303.00
2023-11-18T06:02:27.178Z,94303.55
2023-11-18T06:03:31.020Z,94305.80
2023-11-18T06:04:35.560Z,94307.50
2023-11-18T06:05:40.430Z,94309.88
2023-11-18T06:06:44.013Z,94312.16
2023-11-18T06:07:47.830Z,94312.98
2023-11-18T06:08:51.461Z,94315.58
2023-11-18T06:09:54.741Z,94314.52
2023-11-18T06:10:58.465Z,94315.22
2023-11-18T06:12:03.074Z,94321.92
2023-11-18T06:13:06.658Z,94324.30
2023-11-18T06:14:09.977Z,94324.52
2023-11-18T06:15:15.435Z,94322.86
2023-11-18T06:16:24.810Z,94325.31
2023-11-18T06:17:28.590Z,94324.52
2023-11-18T06:18:32.919Z,94322.37
2023-11-18T06:19:37.812Z,94319.85
2023-11-18T06:20:41.150Z,94322.24
2023-11-18T06:21:44.968Z,94318.46
2023-11-18T06:22:48.336Z,94320.73
2023-11-18T06:23:52.212Z,94323.23
2023-11-18T06:24:55.326Z,94320.17
2023-11-18T06:26:00.626Z,94320.88
2023-11-18T06:27:06.350Z,94325.41
2023-11-18T06:28:09.846Z,94328.73
2023-11-18T06:29:15.441Z,94329.64
2023-11-18T06:30:20.430Z,94337.64
2023-11-18T06:31:25.311Z,94341.91
2023-11-18T06:32:29.059Z,94350.20
2023-11-18T06:33:33.383Z,94354.36
2023-11-18T06:34:37.867Z,94353.48
2023-11-18T06:35:41.806Z,94355.72
2023-11-18T06:36:45.010Z,94358.34
2023-11-18T06:37:48.506Z,94357.48
2023-11-18T06:38:53.435Z,94352.42
2023-11-18T06:39:57.441Z,94351.73
2023-11-18T06:41:05.261Z,94350.72
2023-11-18T06:42:12.043Z,94350.02
2023-11-18T06:43:15.407Z,94345.20
2023-11-18T06:44:24.374Z,94343.64
2023-11-18T06:45:27.974Z,94344.02
2023-11-18T06:46:34.678Z,94339.81
2023-11-18T06:47:38.706Z,94343.16
2023-11-18T06:48:42.403Z,94342.41
2023-11-18T06:49:48.045Z,94345.61
2023-11-18T06:50:51.365Z,94351.42
2023-11-18T06:51:54.792Z,94349.52
2023-11-18T06:52:59.578Z,94354.76
2023-11-18T06:54:08.737Z,94356.83
2023-11-18T06:55:11.901Z,94350.11
2023-11-18T06:56:16.424Z,94352.61
2023-11-18T06:57:20.426Z,94349.50
2023-11-18T06:58:24.170Z,94349.84
2023-11-18T06:59:27.770Z,94344.75
2023-11-18T07:00:31.017Z,94344.54
2023-11-18T07:01:37.318Z,94342.06
2023-11-18T07:02:41.513Z,94347.27
2023-11-18T07:03:45.957Z,94345.95
2023-11-18T07:04:50.060Z,94345.52
2023-11-18T07:05:53.596Z,94346.52
2023-11-18T07:06:57.011Z,94349.35
2023-11-18T07:08:01.050Z,94345.89
2023-11-18T07:09:12.958Z,94347.90
2023-11-18T07:10:21.126Z,94357.06
2023-11-18T07:11:24.622Z,94359.53
2023-11-18T07:12:28.109Z,94358.21
2023-11-18T07:13:31.643Z,94360.52
2023-11-18T07:14:34.898Z,94359.23
2023-11-18T07:15:38.349Z,94363.73
2023-11-18T07:16:43.564Z,94364.30
2023-11-18T07:17:47.100Z,94370.72
2023-11-18T07:18:50.860Z,94375.67
2023-11-18T07:19:54.695Z,94373.16
2023-11-18T07:20:59.106Z,94378.23
2023-11-18T07:22:03.058Z,94375.05
2023-11-18T07:23:09.317Z,94374.96
2023-11-18T07:24:12.802Z,94381.23
2023-11-18T07:25:16.370Z,94375.64
2023-11-18T07:26:19.722Z,94373.85
2023-11-18T07:27:23.374Z,94377.42
2023-11-18T07:28:27.025Z,94374.33
2023-11-18T07:29:30.622Z,94380.50
2023-11-18T07:30:36.196Z,94379.95
2023-11-18T07:31:40.059Z,94383.88
2023-11-18T07:32:43.880Z,94385.95
2023-11-18T07:33:51.385Z,94384.92
2023-11-18T07:34:56.335Z,94388.61
2023-11-18T07:36:00.762Z,94392.71
2023-11-18T07:37:04.724Z,94392.05
2023-11-18T07:38:08.413Z,94395.05
2023-11-18T07:39:16.191Z,94389.51
2023-11-18T07:40:28.512Z,94394.05
2023-11-18T07:41:34.086Z,94391.66
2023-11-18T07:42:38.592Z,94391.73
2023-11-18T07:43:45.089Z,94396.46
2023-11-18T07:44:48.876Z,94397.13
2023-11-18T07:45:53.327Z,94394.26
2023-11-18T07:46:57.053Z,94397.80
2023-11-18T07:48:00.882Z,94402.78
2023-11-18T07:49:04.945Z,94404.08
2023-11-18T07:50:13.087Z,94409.00
2023-11-18T07:51:16.635Z,94406.67
2023-11-18T07:52:20.903Z,94411.98
2023-11-18T07:53:24.727Z,94413.04
2023-11-18T07:54:28.157Z,94420.64
2023-11-18T07:55:34.724Z,94411.52
2023-11-18T07:56:38.460Z,94419.73
2023-11-18T07:57:42.856Z,94417.41
2023-11-18T07:58:47.021Z,94419.93
2023-11-18T07:59:51.613Z,94422.99
2023-11-18T08:00:55.368Z,94426.46
2023-11-18T08:02:02.808Z,94416.62
2023-11-18T08:03:12.119Z,94417.29
2023-11-18T08:04:15.751Z,94414.70
2023-11-18T08:05:20.427Z,94415.98
2023-11-18T08:06:26.804Z,94417.19
2023-11-18T08:07:30.300Z,94418.89
2023-11-18T08:08:33.755Z,94420.65
2023-11-18T08:09:39.652Z,94422.70
2023-11-18T08:10:44.898Z,94421.48
2023-11-18T08:11:49.946Z,94429.86
2023-11-18T08:12:54.816Z,94427.31
2023-11-18T08:13:59.627Z,94429.96
2023-11-18T08:15:04.208Z,94434.13
2023-11-18T08:16:09.516Z,94434.63
2023-11-18T08:17:14.222Z,94438.20
2023-11-18T08:18:17.614Z,94438.04
2023-11-18T08:19:23.107Z,94441.71
2023-11-18T08:20:26.869Z,94441.93
2023-11-18T08:21:30.580Z,94439.33
2023-11-18T08:22:34.654Z,94447.66
2023-11-18T08:23:37.941Z,94443.45
2023-11-18T08:24:41.195Z,94442.54
2023-11-18T08:25:44.634Z,94449.55
2023-11-18T08:26:48.493Z,94446.58
2023-11-18T08:27:52.578Z,94458.71
2023-11-18T08:28:56.053Z,94457.61
2023-11-18T08:29:59.998Z,94459.08
2023-11-18T08:31:03.893Z,94462.13
2023-11-18T08:32:09.990Z,94461.46
2023-11-18T08:33:13.888Z,94464.52
2023-11-18T08:34:19.709Z,94462.29
2023-11-18T08:35:23.555Z,94467.90
2023-11-18T08:36:28.107Z,94470.11
2023-11-18T08:37:31.954Z,94473.63
2023-11-18T08:38:36.318Z,94471.06
2023-11-18T08:39:40.632Z,94474.46
2023-11-18T08:40:45.590Z,94473.48
2023-11-18T08:41:51.407Z,94473.08
2023-11-18T08:42:56.652Z,94474.85
2023-11-18T08:44:13.396Z,94473.14
2023-11-18T08:45:27.796Z,94475.67
2023-11-18T08:46:30.084Z,94478.70
2023-11-18T08:47:33.644Z,94482.10
2023-11-18T08:48:36.998Z,94482.88
2023-11-18T08:49:42.967Z,94489.25
2023-11-18T08:50:47.436Z,94485.52
2023-11-18T08:51:56.363Z,94483.91
2023-11-18T08:53:00.530Z,94489.18
2023-11-18T08:54:22.665Z,94489.38
2023-11-18T08:55:40.122Z,94485.30
2023-11-18T08:56:44.920Z,94492.57
2023-11-18T08:57:58.772Z,94491.98
2023-11-18T08:59:02.874Z,94497.40
2023-11-18T09:00:30.149Z,94494.41
2023-11-18T09:01:34.627Z,94499.60
2023-11-18T09:02:47.394Z,94505.65
2023-11-18T09:03:57.546Z,94500.33
2023-11-18T09:05:07.252Z,94506.86
2023-11-18T09:06:18.119Z,94501.04
2023-11-18T09:07:22.318Z,94503.52
2023-11-18T09:08:35.632Z,94508.48
2023-11-18T09:09:40.452Z,94509.99
2023-11-18T09:10:44.135Z,94508.30
2023-11-18T09:11:49.018Z,94504.39
2023-11-18T09:12:55.343Z,94510.88
2023-11-18T09:14:02.127Z,94505.38
2023-11-18T09:15:09.026Z,94510.20
2023-11-18T09:16:12.571Z,94507.91
2023-11-18T09:17:15.948Z,94510.45
2023-11-18T09:18:20.459Z,94516.17
2023-11-18T09:19:23.775Z,94508.40
2023-11-18T09:20:28.022Z,94505.06
2023-11-18T09:21:36.030Z,94503.80
2023-11-18T09:22:39.720Z,94508.96
2023-11-18T09:23:45.205Z,94503.92
2023-11-18T09:24:50.372Z,94511.70
2023-11-18T09:25:54.660Z,94506.13
2023-11-18T09:26:58.225Z,94507.05
2023-11-18T09:28:01.391Z,94501.67
2023-11-18T09:29:04.978Z,94498.80
2023-11-18T09:30:14.341Z,94505.45
2023-11-18T09:31:18.231Z,94499.47
2023-11-18T09:32:26.503Z,94507.76
2023-11-18T09:33:34.720Z,94497.31
2023-11-18T09:34:40.676Z,94495.22
2023-11-18T09:35:45.942Z,94491.74
2023-11-18T09:36:49.602Z,94494.58
2023-11-18T09:37:53.521Z,94494.67
2023-11-18T09:38:57.605Z,94502.80
2023-11-18T09:40:12.566Z,94496.09
2023-11-18T09:41:16.673Z,94505.19
2023-11-18T09:42:20.898Z,94501.65
2023-11-18T09:43:26.967Z,94501.38
2023-11-18T09:44:30.865Z,94505.27
2023-11-18T09:45:36.506Z,94504.49
2023-11-18T09:46:47.297Z,94501.98
2023-11-18T09:47:54.133Z,94506.96
2023-11-18T09:49:18.794Z,94508.78
2023-11-18T09:50:27.961Z,94514.66
2023-11-18T09:51:41.440Z,94529.46
2023-11-18T09:52:54.768Z,94516.33
2023-11-18T09:54:12.243Z,94525.09
2023-11-18T09:55:23.755Z,94521.23
2023-11-18T09:56:39.925Z,94524.46
2023-11-18T09:57:57.750Z,94523.07
2023-11-18T09:59:20.264Z,94517.94
2023-11-18T10:00:26.907Z,94520.21
2023-11-18T10:01:33.421Z,94520.50
2023-11-18T10:02:40.428Z,94515.92
2023-11-18T10:03:46.631Z,94516.92
2023-11-18T10:04:58.948Z,94521.62
2023-11-18T10:06:06.499Z,94529.23
2023-11-18T10:07:12.122Z,94517.62
2023-11-18T10:08:17.327Z,94518.12
2023-11-18T10:09:28.830Z,94527.15
2023-11-18T10:10:46.222Z,94524.05
2023-11-18T10:11:49.705Z,94531.10
2023-11-18T10:12:53.515Z,94524.36
2023-11-18T10:13:57.508Z,94526.67
2023-11-18T10:15:04.239Z,94521.92
2023-11-18T10:16:09.821Z,94525.85
2023-11-18T10:17:15.407Z,94529.66
2023-11-18T10:18:26.017Z,94520.23
2023-11-18T10:19:57.519Z,94530.61
2023-11-18T10:21:01.504Z,94532.72
2023-11-18T10:22:22.284Z,94526.21
2023-11-18T10:23:27.805Z,94535.01
2023-11-18T10:24:45.715Z,94533.96
2023-11-18T10:25:50.215Z,94538.95
2023-11-18T10:26:57.223Z,94538.80
2023-11-18T10:28:03.176Z,94532.11
2023-11-18T10:29:09.781Z,94538.30
2023-11-18T10:30:19.421Z,94534.15
2023-11-18T10:31:24.929Z,94537.22
2023-11-18T10:32:28.956Z,94541.38
2023-11-18T10:33:36.570Z,94543.80
2023-11-18T10:34:40.559Z,94547.02
2023-11-18T10:35:56.341Z,94547.25
2023-11-18T10:37:03.688Z,94549.41
2023-11-18T10:38:08.070Z,94552.09
2023-11-18T10:39:16.786Z,94553.95
2023-11-18T10:40:24.695Z,94557.20
2023-11-18T10:41:31.421Z,94553.90
2023-11-18T10:42:34.737Z,94557.48
2023-11-18T10:43:39.641Z,94554.75
2023-11-18T10:44:57.784Z,94561.75
2023-11-18T10:46:12.308Z,94553.56
2023-11-18T10:47:17.726Z,94561.77
2023-11-18T10:48:21.749Z,94561.75
2023-11-18T10:49:25.472Z,94571.77
2023-11-18T10:50:32.946Z,94570.17
2023-11-18T10:51:39.452Z,94563.63
2023-11-18T10:52:43.078Z,94569.80
2023-11-18T10:54:04.316Z,94566.27
2023-11-18T10:55:11.895Z,94563.54
2023-11-18T10:56:27.102Z,94573.20
2023-11-18T10:57:29.772Z,94567.08
2023-11-18T10:58:41.697Z,94568.77
2023-11-18T11:00:00.113Z,94571.21
2023-11-18T11:01:05.978Z,94569.95
2023-11-18T11:02:24.527Z,94567.38
2023-11-18T11:03:34.056Z,94567.21
2023-11-18T11:04:45.796Z,94578.70
2023-11-18T11:05:50.216Z,94570.20
2023-11-18T11:06:54.049Z,94576.97
2023-11-18T11:08:00.193Z,94578.55
2023-11-18T11:09:10.711Z,94576.37
2023-11-18T11:10:14.542Z,94579.98
2023-11-18T11:11:22.432Z,94583.73
2023-11-18T11:12:30.522Z,94580.16
2023-11-18T11:13:34.686Z,94580.94
2023-11-18T11:14:46.680Z,94582.85
2023-11-18T11:15:57.591Z,94574.52
2023-11-18T11:17:11.686Z,94574.75
2023-11-18T11:18:24.165Z,94574.16
2023-11-18T11:19:44.918Z,94579.36
2023-11-18T11:20:58.337Z,94569.48
2023-11-18T11:22:15.731Z,94567.20
2023-11-18T11:23:28.845Z,94577.97
2023-11-18T11:24:50.291Z,94579.35
2023-11-18T11:26:05.092Z,94580.42
2023-11-18T11:27:29.496Z,94584.36
2023-11-18T11:28:44.283Z,94580.64
2023-11-18T11:29:57.778Z,94585.95
2023-11-18T11:31:15.639Z,94580.55
2023-11-18T11:32:31.183Z,94583.10
2023-11-18T11:33:42.357Z,94582.80
2023-11-18T11:34:54.156Z,94580.73
2023-11-18T11:36:00.267Z,94583.91
2023-11-18T11:37:06.486Z,94586.33
2023-11-18T11:38:13.857Z,94595.36
2023-11-18T11:39:22.860Z,94589.62
2023-11-18T11:40:30.067Z,94591.39
2023-11-18T11:41:34.920Z,94591.13
2023-11-18T11:42:40.800Z,94590.92
2023-11-18T11:43:44.517Z,94592.23
2023-11-18T11:44:48.928Z,94582.04
2023-11-18T11:45:55.040Z,94586.40
2023-11-18T11:47:00.803Z,94585.11
2023-11-18T11:48:25.707Z,94588.21
2023-11-18T11:49:37.521Z,94590.52
2023-11-18T11:50:51.972Z,94592.27
2023-11-18T11:52:04.012Z,94594.63
2023-11-18T11:53:14.443Z,94605.05
2023-11-18T11:54:29.482Z,94602.90
2023-11-18T11:55:39.078Z,94609.05
2023-11-18T11:56:44.521Z,94616.75
2023-11-18T11:57:58.800Z,94614.77
2023-11-18T11:59:03.514Z,94612.78
2023-11-18T12:00:17.756Z,94610.37
2023-11-18T12:01:35.672Z,94620.98
2023-11-18T12:02:41.307Z,94619.60
2023-11-18T12:03:48.383Z,94625.41
2023-11-18T12:04:54.985Z,94624.45
2023-11-18T12:06:09.514Z,94626.63
2023-11-18T12:07:20.671Z,94624.39
2023-11-18T12:08:26.025Z,94628.75
2023-11-18T12:09:38.536Z,94629.17
2023-11-18T12:10:51.934Z,94628.91
2023-11-18T12:11:58.039Z,94631.30
2023-11-18T12:13:17.642Z,94632.91
2023-11-18T12:14:25.034Z,94630.67
2023-11-18T12:15:54.558Z,94631.09
2023-11-18T12:17:08.342Z,94633.00
2023-11-18T12:18:13.523Z,94637.70
2023-11-18T12:19:37.137Z,94636.36
2023-11-18T12:20:42.738Z,94642.63
2023-11-18T12:22:01.676Z,94638.00
2023-11-18T12:23:16.597Z,94647.44
2023-11-18T12:24:22.847Z,94646.10
2023-11-18T12:25:36.191Z,94645.23
2023-11-18T12:26:44.116Z,94647.46
2023-11-18T12:27:52.310Z,94649.48
2023-11-18T12:28:56.338Z,94645.73
2023-11-18T12:29:59.992Z,94642.80
2023-11-18T12:31:17.399Z,94642.48
2023-11-18T12:32:49.219Z,94642.27
2023-11-18T12:34:06.598Z,94638.79
2023-11-18T12:35:17.928Z,94642.05
2023-11-18T12:37:05.892Z,94645.46
2023-11-18T12:38:40.895Z,94643.69
2023-11-18T12:40:25.131Z,94646.84
2023-11-18T12:41:38.521Z,94648.74
2023-11-18T12:43:05.869Z,94646.86
2023-11-18T12:44:35.780Z,94645.80
2023-11-18T12:46:08.188Z,94647.53
2023-11-18T12:47:15.567Z,94647.06
2023-11-18T12:48:27.409Z,94648.58
2023-11-18T12:49:31.121Z,94652.05
2023-11-18T12:50:36.435Z,94654.58
2023-11-18T12:51:40.164Z,94657.77
2023-11-18T12:52:45.268Z,94656.63
2023-11-18T12:53:53.595Z,94660.21
2023-11-18T12:54:58.950Z,94664.69
2023-11-18T12:56:04.068Z,94671.58
2023-11-18T12:57:07.888Z,94669.95
2023-11-18T12:58:12.446Z,94675.61
2023-11-18T12:59:18.236Z,94683.23
2023-11-18T13:00:28.654Z,94681.47